Time;durP1;ratioP1;P1;durP2;ratioP2;P2;SDS_P1;SDS_P2;PMS_P1;PMS_P2;Temp;Humidity;BMP_temperature;BMP_pressure;BME280_temperature;BME280_humidity;BME280_pressure;Samples;Min_cycle;Max_cycle;Signal;HPM_P1;HPM_P2
2022/05/07 00:02:06;;;;;;;12.50;5.90;;;14.60;2.80;;;;;;4994035;28;25125;-73
2022/05/07 00:04:33;;;;;;;14.27;5.80;;;14.70;1.00;;;;;;5011548;28;25059;-71
2022/05/07 00:06:59;;;;;;;11.48;4.85;;;14.70;1.00;;;;;;5009633;28;25116;-71
2022/05/07 00:09:25;;;;;;;9.40;4.20;;;14.70;1.00;;;;;;4997421;28;25126;-71
2022/05/07 00:11:51;;;;;;;9.73;4.70;;;14.80;1.00;;;;;;5012903;28;25105;-73
2022/05/07 00:14:16;;;;;;;7.47;4.45;;;14.70;1.00;;;;;;5011706;28;25131;-73
2022/05/07 00:19:40;;;;;;;10.52;3.80;;;14.70;1.00;;;;;;4978910;28;25073;-71
2022/05/07 00:22:05;;;;;;;10.43;4.43;;;14.70;1.00;;;;;;5026549;28;25074;-74
2022/05/07 00:24:31;;;;;;;6.03;3.47;;;14.80;1.00;;;;;;5009268;28;25045;-71
2022/05/07 00:26:57;;;;;;;8.85;3.65;;;14.80;1.00;;;;;;5010964;28;25077;-72
2022/05/07 00:29:23;;;;;;;10.90;4.10;;;14.80;1.00;;;;;;4993248;28;25082;-70
2022/05/07 00:31:48;;;;;;;9.43;4.20;;;14.80;1.00;;;;;;5025840;28;25111;-71
2022/05/07 00:34:14;;;;;;;10.95;4.28;;;14.80;1.00;;;;;;5010452;28;25076;-72
2022/05/07 00:36:40;;;;;;;12.32;4.95;;;14.80;1.00;;;;;;5008924;28;25086;-72
2022/05/07 00:39:05;;;;;;;10.55;4.70;;;14.80;1.00;;;;;;5011121;28;25111;-71
2022/05/07 00:41:31;;;;;;;9.73;4.05;;;14.80;1.00;;;;;;5010001;28;25067;-70
2022/05/07 00:43:56;;;;;;;8.98;4.40;;;14.70;1.00;;;;;;5011639;28;25060;-71
2022/05/07 00:46:25;;;;;;;11.63;3.88;;;14.70;1.00;;;;;;5011003;28;25078;-71
2022/05/07 00:48:51;;;;;;;7.97;4.40;;;14.70;1.00;;;;;;5012462;28;25053;-71
2022/05/07 00:51:35;;;;;;;11.10;4.10;;;14.70;1.00;;;;;;5011994;28;25131;-73
2022/05/07 00:54:06;;;;;;;10.38;5.32;;;14.60;1.00;;;;;;5020365;28;25071;-73
2022/05/07 00:56:33;;;;;;;7.70;4.10;;;14.60;1.00;;;;;;5020394;28;25050;-72
2022/05/07 00:58:58;;;;;;;9.20;4.75;;;14.60;1.00;;;;;;5029155;28;25052;-72
2022/05/07 01:01:25;;;;;;;11.35;4.63;;;14.60;1.00;;;;;;5035018;28;25092;-74
2022/05/07 01:03:52;;;;;;;12.68;4.57;;;14.60;1.00;;;;;;5033023;28;25070;-73
2022/05/07 01:06:18;;;;;;;9.13;4.43;;;14.50;1.00;;;;;;5015464;28;25084;-73
2022/05/07 01:08:47;;;;;;;10.07;4.43;;;14.50;1.00;;;;;;5008869;28;25129;-71
2022/05/07 01:11:13;;;;;;;10.82;4.32;;;14.50;1.00;;;;;;5011350;28;25081;-72
2022/05/07 01:13:39;;;;;;;10.27;4.50;;;14.50;1.00;;;;;;5009503;28;25076;-72
2022/05/07 01:16:05;;;;;;;10.85;5.20;;;14.50;1.00;;;;;;4991452;28;25082;-72
2022/05/07 01:18:30;;;;;;;11.45;4.80;;;14.60;1.00;;;;;;4991923;28;25056;-71
2022/05/07 01:20:58;;;;;;;9.60;4.35;;;14.50;1.00;;;;;;5006676;28;25106;-72
2022/05/07 01:23:25;;;;;;;7.38;4.55;;;14.50;1.00;;;;;;5010208;28;25062;-72
2022/05/07 01:25:50;;;;;;;9.52;4.38;;;14.40;1.00;;;;;;5007553;28;25102;-71
2022/05/07 01:28:16;;;;;;;9.85;4.25;;;14.40;1.00;;;;;;5007230;28;25128;-73
2022/05/07 01:30:42;;;;;;;6.35;4.22;;;14.40;1.00;;;;;;5005329;28;25072;-72
2022/05/07 01:33:07;;;;;;;12.05;5.15;;;14.40;1.00;;;;;;5006216;28;25168;-73
2022/05/07 01:35:33;;;;;;;10.52;5.15;;;14.40;1.00;;;;;;5005808;28;25082;-71
2022/05/07 01:37:58;;;;;;;11.85;5.28;;;14.40;1.00;;;;;;5023748;28;25071;-72
2022/05/07 01:40:24;;;;;;;7.72;4.60;;;14.30;1.00;;;;;;5008008;28;25080;-73
2022/05/07 01:42:49;;;;;;;17.02;5.68;;;14.30;1.00;;;;;;5007712;28;25145;-72
2022/05/07 01:45:15;;;;;;;11.00;5.10;;;14.30;1.00;;;;;;5007618;28;25110;-72
2022/05/07 01:50:26;;;;;;;12.38;5.90;;;14.20;1.00;;;;;;5009309;28;25174;-73
2022/05/07 01:52:51;;;;;;;12.70;6.63;;;14.30;1.20;;;;;;4991300;28;25125;-71
2022/05/07 01:55:17;;;;;;;11.85;6.13;;;14.20;2.00;;;;;;5009849;28;25055;-73
2022/05/07 01:57:42;;;;;;;11.00;5.97;;;14.20;2.40;;;;;;4993176;28;25094;-71
2022/05/07 02:00:08;;;;;;;13.10;5.80;;;14.20;2.90;;;;;;5009255;28;25090;-72
2022/05/07 02:02:34;;;;;;;12.05;6.63;;;14.20;3.80;;;;;;5007485;28;25063;-72
2022/05/07 02:05:01;;;;;;;17.17;7.88;;;14.30;3.30;;;;;;4982935;28;25057;-71
2022/05/07 02:07:27;;;;;;;16.60;7.63;;;14.30;3.40;;;;;;5007518;28;25070;-70
2022/05/07 02:09:52;;;;;;;12.05;7.68;;;14.30;3.50;;;;;;5007539;28;25159;-71
2022/05/07 02:12:18;;;;;;;15.40;7.82;;;14.20;4.20;;;;;;5009197;28;25160;-71
2022/05/07 02:14:43;;;;;;;21.33;8.25;;;14.30;5.10;;;;;;5007564;28;25063;-71
2022/05/07 02:17:09;;;;;;;23.90;10.02;;;14.20;6.20;;;;;;5008478;28;25122;-71
2022/05/07 02:19:35;;;;;;;20.98;10.00;;;14.10;7.40;;;;;;5007689;28;25111;-72
2022/05/07 02:22:01;;;;;;;23.45;8.95;;;14.10;8.80;;;;;;5008204;28;25115;-71
2022/05/07 02:24:27;;;;;;;17.15;9.43;;;14.10;9.30;;;;;;5022288;28;25056;-72
2022/05/07 02:26:52;;;;;;;18.80;9.57;;;14.10;10.20;;;;;;5006796;28;25057;-72
2022/05/07 02:29:18;;;;;;;17.40;9.77;;;14.10;10.60;;;;;;5005472;28;25053;-71
2022/05/07 02:32:03;;;;;;;17.15;9.82;;;14.00;11.20;;;;;;5008002;28;25076;-71
2022/05/07 02:34:30;;;;;;;17.02;8.98;;;14.00;12.10;;;;;;5009220;28;25089;-72
2022/05/07 02:36:56;;;;;;;17.80;9.73;;;14.00;12.80;;;;;;5007782;28;25098;-73
2022/05/07 02:39:22;;;;;;;17.23;10.05;;;14.00;12.90;;;;;;5007148;28;25091;-72
2022/05/07 02:44:32;;;;;;;20.83;10.30;;;14.00;14.30;;;;;;5006652;28;25099;-72
2022/05/07 02:46:57;;;;;;;18.27;10.65;;;13.90;15.40;;;;;;5006575;28;25098;-72
2022/05/07 02:49:23;;;;;;;23.83;10.68;;;13.90;16.60;;;;;;5006512;28;25073;-72
2022/05/07 02:51:48;;;;;;;23.63;11.68;;;13.90;16.90;;;;;;5007322;28;25057;-70
2022/05/07 02:54:14;;;;;;;23.40;11.40;;;13.90;18.00;;;;;;5006407;28;25072;-72
2022/05/07 02:56:40;;;;;;;24.15;10.30;;;13.80;19.20;;;;;;5005169;28;25102;-72
2022/05/07 02:59:05;;;;;;;22.23;12.18;;;13.80;20.50;;;;;;5004901;28;25078;-72
2022/05/07 03:01:31;;;;;;;28.52;11.93;;;13.80;21.20;;;;;;5007379;28;25069;-72
2022/05/07 03:03:56;;;;;;;24.55;11.95;;;13.80;22.80;;;;;;5007928;28;25128;-71
2022/05/07 03:06:22;;;;;;;26.15;12.57;;;13.70;24.40;;;;;;5008043;28;25057;-71
2022/05/07 03:08:48;;;;;;;29.45;13.43;;;13.70;25.60;;;;;;5004921;28;25178;-72
2022/05/07 03:11:14;;;;;;;30.10;15.60;;;13.70;28.60;;;;;;5006530;28;25072;-71
2022/05/07 03:13:40;;;;;;;26.35;13.35;;;13.60;30.40;;;;;;5008102;28;25125;-73
2022/05/07 03:16:06;;;;;;;23.80;14.60;;;13.70;32.10;;;;;;4981634;28;25144;-73
2022/05/07 03:18:32;;;;;;;27.83;14.63;;;13.60;33.40;;;;;;5007685;28;25092;-70
2022/05/07 03:20:58;;;;;;;27.45;14.82;;;13.60;36.30;;;;;;5005720;28;25077;-72
2022/05/07 03:23:25;;;;;;;25.92;15.63;;;13.70;37.30;;;;;;5006284;28;25084;-74
2022/05/07 03:25:51;;;;;;;33.70;16.40;;;13.70;38.80;;;;;;5006245;28;25094;-71
2022/05/07 03:28:17;;;;;;;32.30;15.98;;;13.60;41.10;;;;;;4989764;28;25082;-72
2022/05/07 03:30:42;;;;;;;29.85;17.00;;;13.70;42.70;;;;;;5007152;28;25185;-72
2022/05/07 03:33:08;;;;;;;31.25;17.15;;;13.70;44.30;;;;;;5003948;28;25162;-73
2022/05/07 03:35:34;;;;;;;30.35;16.30;;;13.70;46.10;;;;;;5006633;28;25078;-71
2022/05/07 03:37:59;;;;;;;33.47;17.67;;;13.70;49.20;;;;;;5005600;28;25075;-71
2022/05/07 03:40:25;;;;;;;36.75;17.65;;;13.60;50.50;;;;;;5004957;28;25130;-71
2022/05/07 03:42:51;;;;;;;33.55;17.50;;;13.60;54.80;;;;;;5005521;28;25129;-72
2022/05/07 03:45:16;;;;;;;33.00;17.02;;;13.60;57.10;;;;;;5006189;28;25071;-70
2022/05/07 03:47:42;;;;;;;36.47;18.73;;;13.70;58.80;;;;;;5006549;28;25146;-70
2022/05/07 03:50:08;;;;;;;33.40;18.35;;;13.70;58.70;;;;;;5006552;28;25047;-72
2022/05/07 03:55:18;;;;;;;38.15;19.33;;;13.70;59.30;;;;;;5006311;28;25152;-73
2022/05/07 03:57:44;;;;;;;39.83;20.92;;;13.70;65.00;;;;;;5004436;28;25115;-72
2022/05/07 04:00:10;;;;;;;40.25;21.02;;;13.70;62.50;;;;;;5007470;28;25088;-73
2022/05/07 04:02:36;;;;;;;39.03;19.77;;;13.70;63.60;;;;;;5006876;28;25137;-73
2022/05/07 04:05:02;;;;;;;40.65;19.65;;;13.70;62.00;;;;;;4990055;28;25060;-74
2022/05/07 04:07:28;;;;;;;39.78;20.25;;;13.70;62.30;;;;;;4991184;28;25079;-73
2022/05/07 04:09:56;;;;;;;39.40;20.38;;;13.70;63.50;;;;;;5007856;28;25069;-72
2022/05/07 04:12:22;;;;;;;42.95;21.45;;;13.70;68.10;;;;;;5006438;28;25082;-73
2022/05/07 04:14:48;;;;;;;40.83;20.20;;;13.70;67.80;;;;;;5005189;28;25071;-72
2022/05/07 04:17:13;;;;;;;41.80;20.48;;;13.70;67.70;;;;;;5007667;28;25147;-72
2022/05/07 04:19:39;;;;;;;39.30;20.85;;;13.70;68.80;;;;;;5004807;28;25084;-71
2022/05/07 04:22:05;;;;;;;43.25;19.40;;;13.60;73.80;;;;;;5004369;28;25078;-71
2022/05/07 04:24:33;;;;;;;41.10;21.85;;;13.60;77.50;;;;;;5005721;28;25076;-71
2022/05/07 04:27:00;;;;;;;43.53;21.77;;;13.50;79.70;;;;;;5006069;28;25144;-71
2022/05/07 04:29:25;;;;;;;42.35;21.38;;;13.60;82.50;;;;;;5007810;28;25109;-72
2022/05/07 04:31:51;;;;;;;43.17;21.80;;;13.60;84.30;;;;;;4993695;28;25149;-72
2022/05/07 04:34:17;;;;;;;40.30;22.15;;;13.50;84.20;;;;;;5005688;28;25063;-73
2022/05/07 04:36:42;;;;;;;44.95;22.33;;;13.50;90.50;;;;;;5021782;28;25083;-71
2022/05/07 04:39:08;;;;;;;55.85;21.00;;;13.50;92.60;;;;;;5021398;28;25147;-71
2022/05/07 04:41:34;;;;;;;45.90;23.10;;;13.50;92.80;;;;;;5016900;28;25064;-72
2022/05/07 04:44:01;;;;;;;45.63;23.10;;;13.50;91.50;;;;;;5017575;28;25115;-72
2022/05/07 04:46:26;;;;;;;44.72;23.65;;;13.60;94.40;;;;;;5011747;28;25155;-70
2022/05/07 04:48:52;;;;;;;43.75;23.23;;;13.50;94.10;;;;;;5016702;28;25086;-72
2022/05/07 04:51:18;;;;;;;48.78;23.15;;;13.40;97.60;;;;;;5017977;28;25100;-71
2022/05/07 04:53:44;;;;;;;47.92;23.10;;;13.40;99.90;;;;;;5021998;28;25075;-71
2022/05/07 04:56:10;;;;;;;45.50;22.58;;;13.40;99.90;;;;;;5017662;28;25064;-71
2022/05/07 04:58:35;;;;;;;46.95;22.75;;;13.40;99.90;;;;;;5014150;28;25092;-72
2022/05/07 05:01:01;;;;;;;52.97;23.73;;;13.40;99.90;;;;;;5010331;28;25129;-71
2022/05/07 05:03:26;;;;;;;47.33;24.08;;;13.50;99.90;;;;;;5012221;28;25130;-70
2022/05/07 05:05:52;;;;;;;46.97;21.65;;;13.50;99.90;;;;;;5017095;28;25072;-69
2022/05/07 05:08:17;;;;;;;46.85;24.20;;;13.50;99.90;;;;;;5016736;28;25055;-70
2022/05/07 05:10:43;;;;;;;57.45;24.20;;;13.40;99.90;;;;;;5018023;28;25060;-70
2022/05/07 05:13:09;;;;;;;53.58;23.88;;;13.40;99.90;;;;;;5008809;28;25095;-69
2022/05/07 05:15:35;;;;;;;55.28;24.23;;;13.40;99.90;;;;;;5008747;28;25088;-72
2022/05/07 05:18:01;;;;;;;46.97;23.20;;;13.50;99.90;;;;;;5008234;28;25072;-70
2022/05/07 05:20:26;;;;;;;48.72;22.95;;;13.50;99.90;;;;;;5007991;28;25061;-70
2022/05/07 05:22:52;;;;;;;51.05;24.17;;;13.50;99.90;;;;;;5008608;28;25060;-69
2022/05/07 05:25:20;;;;;;;44.05;23.05;;;13.40;99.90;;;;;;5008018;28;25058;-72
2022/05/07 05:27:45;;;;;;;46.08;23.25;;;13.40;99.90;;;;;;5008419;28;25100;-71
2022/05/07 05:30:12;;;;;;;49.17;24.10;;;13.40;99.90;;;;;;5008219;28;25191;-72
2022/05/07 05:32:37;;;;;;;40.95;22.83;;;13.40;99.90;;;;;;5007990;28;25080;-71
2022/05/07 05:35:03;;;;;;;57.42;24.60;;;13.40;99.90;;;;;;5007183;28;25123;-70
2022/05/07 05:37:32;;;;;;;46.85;24.40;;;13.50;99.90;;;;;;5006252;28;25184;-71
2022/05/07 05:39:58;;;;;;;50.92;23.55;;;13.50;99.90;;;;;;5008221;28;25090;-71
2022/05/07 05:42:24;;;;;;;44.58;21.15;;;13.50;99.90;;;;;;5008195;28;25080;-69
2022/05/07 05:44:49;;;;;;;46.30;22.58;;;13.60;99.90;;;;;;5005668;28;25080;-70
2022/05/07 05:47:15;;;;;;;48.38;22.33;;;13.70;99.90;;;;;;5007443;28;25067;-70
2022/05/07 05:49:41;;;;;;;49.60;23.08;;;13.80;99.90;;;;;;5007485;28;25056;-70
2022/05/07 05:52:07;;;;;;;45.58;22.20;;;13.90;99.90;;;;;;5006187;28;25070;-71
2022/05/07 05:54:34;;;;;;;40.95;21.90;;;14.00;99.90;;;;;;5010388;28;25074;-71
2022/05/07 05:57:00;;;;;;;44.60;23.05;;;14.10;99.40;;;;;;5006804;28;25076;-70
2022/05/07 05:59:26;;;;;;;43.25;22.05;;;14.30;96.20;;;;;;5005963;28;25060;-71
2022/05/07 06:01:52;;;;;;;42.03;20.95;;;14.40;91.60;;;;;;5006436;28;25098;-69
2022/05/07 06:04:18;;;;;;;40.42;21.85;;;14.50;88.20;;;;;;5006065;28;25110;-70
2022/05/07 06:06:44;;;;;;;40.00;21.45;;;14.70;80.40;;;;;;5005189;28;25060;-72
2022/05/07 06:09:10;;;;;;;46.97;22.63;;;14.70;69.50;;;;;;5007187;28;25065;-70
2022/05/07 06:11:35;;;;;;;46.33;22.50;;;14.70;63.90;;;;;;5007382;28;25049;-70
2022/05/07 06:14:01;;;;;;;40.60;23.40;;;14.80;64.80;;;;;;5009518;28;25081;-70
2022/05/07 06:16:27;;;;;;;45.20;21.60;;;14.70;62.00;;;;;;5009588;28;25083;-71
2022/05/07 06:18:52;;;;;;;49.67;23.23;;;14.80;65.20;;;;;;5012339;28;25136;-71
2022/05/07 06:21:18;;;;;;;44.05;22.30;;;14.80;60.40;;;;;;5013925;28;25069;-70
2022/05/07 06:23:44;;;;;;;40.70;22.08;;;15.00;63.90;;;;;;5016306;28;25070;-69
2022/05/07 06:28:54;;;;;;;38.95;20.10;;;15.20;50.70;;;;;;5014178;28;25071;-71
2022/05/07 06:31:19;;;;;;;41.20;20.33;;;15.30;40.80;;;;;;5016043;28;25099;-70
2022/05/07 06:33:45;;;;;;;37.50;19.77;;;15.30;40.60;;;;;;5018121;28;25103;-69
2022/05/07 06:36:11;;;;;;;38.20;20.90;;;15.30;40.80;;;;;;5016698;28;25058;-70
2022/05/07 06:38:37;;;;;;;37.22;19.60;;;15.30;39.30;;;;;;5015743;28;25078;-69
2022/05/07 06:41:04;;;;;;;36.92;20.63;;;15.50;41.00;;;;;;5013977;28;25064;-69
2022/05/07 06:43:30;;;;;;;40.55;20.35;;;15.70;33.00;;;;;;5013768;28;24782;-71
2022/05/07 06:45:57;;;;;;;43.88;21.75;;;15.60;30.80;;;;;;5012904;28;25072;-70
2022/05/07 06:48:23;;;;;;;40.88;22.02;;;15.50;31.50;;;;;;5013961;28;25070;-71
2022/05/07 06:50:49;;;;;;;40.42;19.45;;;15.60;31.30;;;;;;5013537;28;25140;-70
2022/05/07 06:53:14;;;;;;;34.72;19.60;;;15.50;30.40;;;;;;5014954;28;25086;-72
2022/05/07 06:55:55;;;;;;;32.65;18.50;;;15.70;31.80;;;;;;5012323;28;25069;-71
2022/05/07 06:58:21;;;;;;;35.17;18.00;;;15.80;26.80;;;;;;5008567;28;25082;-70
2022/05/07 07:00:47;;;;;;;33.50;18.63;;;15.80;26.00;;;;;;5004731;28;25063;-70
2022/05/07 07:03:13;;;;;;;33.13;18.38;;;15.90;24.00;;;;;;5006397;28;25054;-71
2022/05/07 07:05:38;;;;;;;36.50;18.65;;;15.90;23.90;;;;;;5004404;28;25091;-74
2022/05/07 07:08:04;;;;;;;32.05;16.83;;;15.80;22.60;;;;;;5008101;28;25055;-69
2022/05/07 07:10:30;;;;;;;29.33;17.73;;;15.80;25.90;;;;;;5010903;28;25138;-72
2022/05/07 07:12:55;;;;;;;30.92;17.60;;;15.90;22.00;;;;;;5008809;28;25080;-70
2022/05/07 07:15:22;;;;;;;34.30;16.88;;;16.00;21.10;;;;;;5005483;28;25145;-71
2022/05/07 07:17:47;;;;;;;30.38;16.33;;;16.30;21.80;;;;;;5006993;28;25150;-70
2022/05/07 07:20:14;;;;;;;27.10;15.63;;;16.50;16.10;;;;;;5006675;28;25069;-72
2022/05/07 07:22:39;;;;;;;26.42;16.05;;;16.60;14.10;;;;;;5008698;28;25073;-71
2022/05/07 07:25:05;;;;;;;28.80;15.27;;;17.10;11.50;;;;;;5011831;28;25061;-73
2022/05/07 07:27:31;;;;;;;28.27;16.13;;;17.60;5.40;;;;;;5012129;28;25104;-68
2022/05/07 07:29:57;;;;;;;27.27;16.00;;;17.40;2.20;;;;;;5007628;28;25099;-70
2022/05/07 07:32:22;;;;;;;24.80;16.00;;;17.20;3.50;;;;;;5009910;28;25067;-69
2022/05/07 07:34:48;;;;;;;31.85;16.92;;;17.00;5.50;;;;;;5006008;28;25064;-72
2022/05/07 07:37:14;;;;;;;28.40;16.33;;;16.90;6.00;;;;;;5009166;28;25052;-70
2022/05/07 07:39:39;;;;;;;24.23;14.65;;;17.00;8.00;;;;;;5010326;28;25081;-71
2022/05/07 07:42:05;;;;;;;28.45;14.60;;;17.30;5.80;;;;;;5009026;28;25077;-72
2022/05/07 07:44:31;;;;;;;30.80;14.82;;;17.40;3.30;;;;;;5009359;28;25079;-72
2022/05/07 07:49:40;;;;;;;22.60;10.85;;;18.00;1.00;;;;;;5007665;28;25069;-70
2022/05/07 07:52:06;;;;;;;17.33;10.48;;;17.70;1.00;;;;;;5007045;28;25074;-70
2022/05/07 07:54:32;;;;;;;15.88;10.27;;;17.60;1.00;;;;;;5007716;28;25067;-70
2022/05/07 07:57:02;;;;;;;16.52;10.50;;;17.70;1.00;;;;;;5005130;28;25162;-69
2022/05/07 07:59:28;;;;;;;21.30;10.75;;;18.10;1.00;;;;;;5007706;28;25057;-69
2022/05/07 08:01:56;;;;;;;20.80;11.30;;;18.10;1.00;;;;;;5007324;28;25063;-69
2022/05/07 08:04:22;;;;;;;17.95;10.35;;;18.00;1.00;;;;;;5008060;28;25059;-71
2022/05/07 08:11:40;;;;;;;18.15;11.23;;;18.30;1.00;;;;;;5009837;28;25086;-69
2022/05/07 08:12:18;;;;;;;16.40;10.02;;;18.40;1.00;;;;;;5011853;28;25060;-70
2022/05/07 08:14:43;;;;;;;17.98;9.50;;;18.10;1.00;;;;;;5016399;28;25444;-70
2022/05/07 08:17:09;;;;;;;19.17;9.48;;;18.60;1.00;;;;;;5035613;28;25123;-72
2022/05/07 08:19:34;;;;;;;15.98;9.45;;;18.90;1.00;;;;;;5033674;28;25056;-71
2022/05/07 08:22:00;;;;;;;17.00;10.70;;;19.40;1.00;;;;;;5034972;28;25082;-69
2022/05/07 08:24:26;;;;;;;17.90;10.23;;;19.60;1.00;;;;;;5032887;28;25106;-72
2022/05/07 08:26:51;;;;;;;18.42;10.55;;;19.60;1.00;;;;;;5035346;28;25070;-70
2022/05/07 08:29:17;;;;;;;22.00;11.60;;;19.30;1.00;;;;;;5026428;28;25061;-69
2022/05/07 08:31:42;;;;;;;19.63;11.38;;;18.90;1.00;;;;;;5020560;28;25145;-71
2022/05/07 08:34:08;;;;;;;18.75;11.20;;;19.50;1.00;;;;;;5014918;28;25110;-71
2022/05/07 08:36:34;;;;;;;19.65;10.82;;;19.40;1.00;;;;;;5017116;28;25041;-71
2022/05/07 08:38:59;;;;;;;16.48;10.32;;;19.00;1.00;;;;;;5012815;28;25132;-71
2022/05/07 08:41:25;;;;;;;18.05;12.57;;;18.90;1.00;;;;;;5013555;28;25048;-70
2022/05/07 08:43:51;;;;;;;20.20;10.65;;;18.90;1.00;;;;;;5013759;28;25098;-71
2022/05/07 08:46:18;;;;;;;22.13;10.82;;;19.00;1.00;;;;;;5012412;28;25096;-70
2022/05/07 08:48:50;;;;;;;18.08;10.20;;;19.40;1.00;;;;;;5009779;28;25062;-71
2022/05/07 08:51:17;;;;;;;12.90;8.10;;;19.50;1.00;;;;;;5011458;28;25157;-72
2022/05/07 08:53:44;;;;;;;12.65;7.78;;;19.90;1.00;;;;;;5012313;28;25110;-72
2022/05/07 08:56:11;;;;;;;12.75;8.10;;;20.40;1.00;;;;;;5010891;28;25060;-71
2022/05/07 08:58:37;;;;;;;13.32;7.78;;;19.90;1.00;;;;;;5007979;28;25053;-71
2022/05/07 09:01:03;;;;;;;16.58;8.55;;;20.10;1.00;;;;;;5010821;28;25088;-70
2022/05/07 09:03:43;;;;;;;16.33;8.52;;;19.60;1.00;;;;;;5007896;28;25103;-69
2022/05/07 09:06:20;;;;;;;14.73;7.50;;;20.00;1.00;;;;;;5008306;28;25119;-69
2022/05/07 09:08:46;;;;;;;8.23;6.32;;;20.20;1.00;;;;;;5007292;28;25081;-70
2022/05/07 09:11:13;;;;;;;13.68;6.82;;;20.00;1.00;;;;;;5009131;28;25240;-69
2022/05/07 09:13:38;;;;;;;7.78;6.18;;;20.40;1.00;;;;;;5009380;28;25148;-70
2022/05/07 09:16:08;;;;;;;8.10;6.13;;;19.90;1.00;;;;;;5008526;28;25074;-72
2022/05/07 09:18:34;;;;;;;9.18;6.88;;;19.90;1.00;;;;;;5006602;28;25073;-72
2022/05/07 09:21:16;;;;;;;14.23;6.78;;;19.60;1.00;;;;;;5007780;28;25130;-70
2022/05/07 09:24:05;;;;;;;11.70;6.03;;;19.70;1.00;;;;;;5011327;28;25134;-70
2022/05/07 09:26:43;;;;;;;7.75;5.57;;;19.20;1.00;;;;;;5015774;28;25071;-69
2022/05/07 09:29:14;;;;;;;11.80;6.65;;;19.30;1.00;;;;;;5014318;28;25104;-70
2022/05/07 09:31:44;;;;;;;11.68;6.05;;;19.00;1.00;;;;;;5011856;28;25083;-73
2022/05/07 09:37:16;;;;;;;16.75;8.10;;;19.80;1.00;;;;;;5010097;28;25078;-70
2022/05/07 09:39:46;;;;;;;9.75;7.45;;;20.50;1.00;;;;;;5010154;28;25095;-69
2022/05/07 09:42:13;;;;;;;13.00;7.53;;;20.50;1.00;;;;;;5007697;28;25059;-70
2022/05/07 09:44:40;;;;;;;8.52;6.30;;;20.80;1.00;;;;;;5007004;28;25059;-70
2022/05/07 09:47:06;;;;;;;13.18;7.40;;;21.00;1.00;;;;;;5008348;28;25134;-70
2022/05/07 09:49:34;;;;;;;10.85;7.55;;;20.00;1.00;;;;;;5008072;28;25162;-71
2022/05/07 09:52:02;;;;;;;11.30;7.38;;;19.20;1.00;;;;;;5008043;28;25159;-72
2022/05/07 09:57:31;;;;;;;10.25;7.45;;;19.00;1.00;;;;;;5010331;28;25085;-69
2022/05/07 10:00:07;;;;;;;13.73;8.88;;;19.10;1.00;;;;;;5008666;28;25076;-71
2022/05/07 10:03:04;;;;;;;13.10;7.32;;;19.50;1.00;;;;;;5007471;28;24899;-69
2022/05/07 10:05:36;;;;;;;9.18;6.63;;;20.30;1.00;;;;;;5004975;28;25068;-70
2022/05/07 10:08:12;;;;;;;9.20;7.20;;;20.80;1.00;;;;;;5023739;28;25086;-72
2022/05/07 10:10:39;;;;;;;10.23;8.07;;;20.40;1.00;;;;;;5009155;28;25253;-70
2022/05/07 10:13:05;;;;;;;15.43;7.88;;;20.30;1.00;;;;;;5009294;28;25089;-70
2022/05/07 10:15:31;;;;;;;10.43;7.03;;;20.10;1.00;;;;;;5006951;28;25076;-69
2022/05/07 10:18:02;;;;;;;12.40;6.75;;;19.90;1.00;;;;;;5007235;28;25066;-70
2022/05/07 10:20:47;;;;;;;16.20;8.13;;;20.40;1.00;;;;;;5012739;28;25127;-74
2022/05/07 10:23:14;;;;;;;8.98;7.38;;;19.80;1.00;;;;;;5012868;28;25064;-72
2022/05/07 10:25:43;;;;;;;13.40;8.65;;;19.70;1.00;;;;;;5015446;28;25070;-69
2022/05/07 10:28:11;;;;;;;11.23;8.07;;;19.40;1.00;;;;;;5011619;28;25073;-71
2022/05/07 10:30:49;;;;;;;9.57;7.72;;;19.30;1.00;;;;;;5013015;28;25061;-72
2022/05/07 10:33:18;;;;;;;10.18;7.93;;;19.60;1.00;;;;;;5014987;28;25132;-73
2022/05/07 10:35:45;;;;;;;13.40;7.95;;;19.60;1.00;;;;;;5013861;28;25182;-71
2022/05/07 10:38:16;;;;;;;12.18;7.20;;;19.40;1.00;;;;;;5015846;28;25152;-73
2022/05/07 10:41:20;;;;;;;12.50;9.20;;;19.20;1.00;;;;;;5007366;28;25073;-71
2022/05/07 10:44:07;;;;;;;15.38;9.55;;;19.30;1.00;;;;;;5005293;28;25118;-72
2022/05/07 10:46:43;;;;;;;16.90;9.82;;;19.70;1.00;;;;;;5007618;28;25081;-70
2022/05/07 10:49:09;;;;;;;11.82;8.23;;;20.60;1.00;;;;;;5009273;28;25101;-71
2022/05/07 10:51:51;;;;;;;14.65;9.10;;;21.00;1.00;;;;;;5010148;28;25070;-74
2022/05/07 10:54:21;;;;;;;15.57;9.23;;;20.90;1.00;;;;;;5009078;28;25057;-73
2022/05/07 10:56:49;;;;;;;15.15;9.45;;;20.30;1.00;;;;;;5014761;28;25116;-69
2022/05/07 10:59:15;;;;;;;13.05;9.10;;;19.80;1.00;;;;;;5029331;28;25136;-71
2022/05/07 11:01:42;;;;;;;15.35;7.97;;;19.40;1.00;;;;;;5016998;28;25090;-73
2022/05/07 11:04:10;;;;;;;12.63;8.23;;;19.50;1.00;;;;;;5009619;28;25050;-70
2022/05/07 11:06:47;;;;;;;11.48;8.07;;;19.60;1.00;;;;;;5008997;28;25066;-69
2022/05/07 11:09:20;;;;;;;14.27;9.38;;;19.40;1.00;;;;;;5009479;28;25066;-70
2022/05/07 11:11:49;;;;;;;17.50;9.63;;;19.10;1.00;;;;;;5009478;28;25088;-71
2022/05/07 11:14:23;;;;;;;13.35;9.70;;;19.00;1.00;;;;;;5008136;28;25055;-71
2022/05/07 11:16:49;;;;;;;17.88;10.52;;;18.90;1.00;;;;;;5009068;28;25052;-71
2022/05/07 11:19:32;;;;;;;15.35;9.93;;;18.70;1.00;;;;;;5009363;28;25051;-71
2022/05/07 11:22:00;;;;;;;12.73;8.55;;;18.80;1.00;;;;;;5008522;28;25106;-71
2022/05/07 11:24:26;;;;;;;11.63;7.53;;;18.90;1.00;;;;;;5008195;28;25077;-70
2022/05/07 11:26:54;;;;;;;12.00;8.10;;;19.00;1.00;;;;;;5008610;28;25078;-69
2022/05/07 11:29:21;;;;;;;12.23;9.02;;;18.80;1.00;;;;;;5008620;28;25058;-69
2022/05/07 11:31:57;;;;;;;18.27;8.68;;;18.70;1.00;;;;;;5005778;28;25136;-68
2022/05/07 11:34:32;;;;;;;15.38;9.45;;;18.70;1.00;;;;;;5008741;28;25080;-70
2022/05/07 11:37:19;;;;;;;14.10;9.45;;;18.70;1.00;;;;;;5023744;28;25064;-69
2022/05/07 11:39:57;;;;;;;11.32;9.43;;;18.80;1.00;;;;;;5027735;28;25050;-71
2022/05/07 11:42:39;;;;;;;16.23;9.63;;;18.90;1.00;;;;;;5028486;28;25068;-71
2022/05/07 11:45:26;;;;;;;15.95;10.73;;;18.90;1.00;;;;;;5008217;28;25062;-70
2022/05/07 11:47:57;;;;;;;17.20;12.30;;;18.70;1.00;;;;;;5008885;28;25143;-70
2022/05/07 11:50:26;;;;;;;19.88;12.65;;;18.70;1.00;;;;;;5008725;28;25074;-70
2022/05/07 11:52:52;;;;;;;19.70;12.35;;;18.70;1.00;;;;;;5008957;28;25077;-69
2022/05/07 11:55:27;;;;;;;13.80;10.00;;;18.90;1.00;;;;;;5010507;28;25074;-70
2022/05/07 11:57:53;;;;;;;13.55;8.00;;;18.70;1.00;;;;;;5007237;28;25053;-71
2022/05/07 12:00:22;;;;;;;19.92;9.48;;;18.80;1.00;;;;;;5008279;28;25049;-69
2022/05/07 12:02:52;;;;;;;15.85;9.68;;;18.70;1.00;;;;;;5008926;28;25061;-70
2022/05/07 12:05:19;;;;;;;23.30;12.30;;;18.70;1.00;;;;;;5009856;28;25053;-71
2022/05/07 12:07:50;;;;;;;16.90;12.45;;;18.60;1.00;;;;;;5010884;28;25060;-70
2022/05/07 12:10:17;;;;;;;15.73;11.80;;;18.70;1.00;;;;;;5010693;28;25097;-69
2022/05/07 12:12:44;;;;;;;21.33;12.75;;;18.70;1.00;;;;;;5013399;28;25123;-71
2022/05/07 12:15:10;;;;;;;19.92;11.52;;;18.40;1.00;;;;;;5015304;28;25145;-72
2022/05/07 12:17:55;;;;;;;20.10;13.43;;;18.40;1.00;;;;;;5011754;28;25159;-68
2022/05/07 12:20:24;;;;;;;21.88;13.90;;;18.40;1.00;;;;;;5011296;28;25063;-69
2022/05/07 12:31:07;;;;;;;19.60;12.63;;;18.40;1.00;;;;;;5026499;28;25076;-71
2022/05/07 12:33:33;;;;;;;19.17;11.95;;;18.60;1.00;;;;;;5021173;28;25067;-71
2022/05/07 12:35:59;;;;;;;25.05;14.65;;;18.70;1.00;;;;;;5023514;28;25153;-70
2022/05/07 12:38:25;;;;;;;21.50;13.25;;;18.70;1.00;;;;;;5019571;28;25062;-70
2022/05/07 12:40:51;;;;;;;18.05;11.68;;;18.70;1.00;;;;;;5015581;28;25076;-70
2022/05/07 12:43:16;;;;;;;19.38;11.82;;;18.90;1.00;;;;;;5010350;28;25137;-70
2022/05/07 12:45:43;;;;;;;18.38;12.15;;;19.00;1.00;;;;;;5008693;28;25158;-71
2022/05/07 12:48:08;;;;;;;19.63;11.38;;;18.90;1.00;;;;;;5007009;28;25085;-70
2022/05/07 12:50:34;;;;;;;17.90;10.27;;;19.00;1.00;;;;;;5008254;28;25126;-69
2022/05/07 12:53:00;;;;;;;15.57;8.48;;;19.40;1.00;;;;;;5007215;28;25124;-70
2022/05/07 12:55:25;;;;;;;7.78;6.63;;;19.80;1.00;;;;;;5015337;28;25076;-70
2022/05/07 12:57:51;;;;;;;9.85;6.55;;;19.80;1.00;;;;;;5020784;28;25067;-69
2022/05/07 13:00:17;;;;;;;10.75;6.38;;;19.70;1.00;;;;;;5019376;28;25088;-70
2022/05/07 13:02:42;;;;;;;11.00;8.13;;;20.00;1.00;;;;;;5019703;28;25108;-70
2022/05/07 13:05:08;;;;;;;11.73;7.57;;;19.90;1.00;;;;;;5023662;28;25082;-69
2022/05/07 13:07:33;;;;;;;11.50;7.13;;;19.80;1.00;;;;;;5025465;28;25070;-71
2022/05/07 13:09:59;;;;;;;13.10;8.20;;;19.60;1.00;;;;;;5017877;28;25118;-70
2022/05/07 13:12:25;;;;;;;14.60;10.25;;;19.60;1.00;;;;;;5015631;28;25056;-69
2022/05/07 13:14:50;;;;;;;18.75;11.57;;;19.70;1.00;;;;;;5018596;28;25076;-71